Time;durP1;ratioP1;P1;durP2;ratioP2;P2;SDS_P1;SDS_P2;PMS_P1;PMS_P2;Temp;Humidity;BMP_temperature;BMP_pressure;BME280_temperature;BME280_humidity;BME280_pressure;Samples;Min_cycle;Max_cycle;Signal;HPM_P1;HPM_P2
2023/04/17 00:01:27;;;;;;;53.47;30.25;;;9.60;99.90;;;;;;5062676;28;20025;-73
2023/04/17 00:03:53;;;;;;;53.33;31.13;;;9.60;99.90;;;;;;5063872;28;20470;-74
2023/04/17 00:06:19;;;;;;;55.95;30.58;;;9.60;99.90;;;;;;5062449;28;20489;-76
2023/04/17 00:08:45;;;;;;;53.25;31.45;;;9.60;99.90;;;;;;5063894;28;20047;-74
2023/04/17 00:11:10;;;;;;;63.90;32.35;;;9.60;99.90;;;;;;5063390;28;20075;-75
2023/04/17 00:13:36;;;;;;;60.28;32.17;;;9.60;99.90;;;;;;5062816;28;20025;-74
2023/04/17 00:16:02;;;;;;;53.92;30.67;;;9.60;99.90;;;;;;5063455;28;20033;-72
2023/04/17 00:18:27;;;;;;;60.30;32.65;;;9.60;99.90;;;;;;5063768;28;20120;-76
2023/04/17 00:20:53;;;;;;;58.45;31.23;;;9.50;99.90;;;;;;5063523;28;20017;-75
2023/04/17 00:23:19;;;;;;;53.95;30.95;;;9.60;99.90;;;;;;5063760;28;20024;-73
2023/04/17 00:25:44;;;;;;;56.80;32.67;;;9.60;99.90;;;;;;5063529;28;20116;-73
2023/04/17 00:28:10;;;;;;;61.55;32.50;;;9.60;99.90;;;;;;5063689;28;20029;-74
2023/04/17 00:30:36;;;;;;;56.00;31.80;;;9.60;99.90;;;;;;5063833;28;20048;-74
2023/04/17 00:33:01;;;;;;;57.67;32.42;;;9.60;99.90;;;;;;5063419;28;20020;-75
2023/04/17 00:35:27;;;;;;;57.63;32.65;;;9.60;99.90;;;;;;5061788;28;20571;-76
2023/04/17 00:37:52;;;;;;;64.63;32.90;;;9.60;99.90;;;;;;5063000;28;20121;-74
2023/04/17 00:40:18;;;;;;;58.53;34.05;;;9.60;99.90;;;;;;5061835;28;20408;-74
2023/04/17 00:42:51;;;;;;;58.45;33.80;;;9.50;99.90;;;;;;5061999;28;20017;-75
2023/04/17 00:45:18;;;;;;;55.97;32.25;;;9.50;99.90;;;;;;5062652;28;20063;-76
2023/04/17 00:47:44;;;;;;;59.83;33.30;;;9.50;99.90;;;;;;5063078;28;20029;-73
2023/04/17 00:50:11;;;;;;;58.75;33.72;;;9.50;99.90;;;;;;5062573;28;20043;-74
2023/04/17 00:52:37;;;;;;;58.53;32.33;;;9.50;99.90;;;;;;5061925;28;20029;-74
2023/04/17 00:55:02;;;;;;;59.42;34.80;;;9.50;99.90;;;;;;5062759;28;20029;-75
2023/04/17 00:57:28;;;;;;;57.25;32.90;;;9.50;99.90;;;;;;5061505;28;20048;-74
2023/04/17 00:59:56;;;;;;;57.63;33.08;;;9.50;99.90;;;;;;5062876;28;20021;-74
2023/04/17 01:02:22;;;;;;;60.83;34.25;;;9.50;99.90;;;;;;5062370;28;20370;-73
2023/04/17 01:04:47;;;;;;;60.78;35.25;;;9.40;99.90;;;;;;5061296;28;20493;-75
2023/04/17 01:07:13;;;;;;;68.47;35.47;;;9.40;99.90;;;;;;5061863;28;20044;-75
2023/04/17 01:09:39;;;;;;;65.50;34.15;;;9.40;99.90;;;;;;5061624;28;20021;-73
2023/04/17 01:12:15;;;;;;;65.00;35.45;;;9.40;99.90;;;;;;5061306;28;20029;-75
2023/04/17 01:14:40;;;;;;;63.45;35.85;;;9.30;99.90;;;;;;5062694;28;20025;-74
2023/04/17 01:17:06;;;;;;;68.88;36.88;;;9.30;99.90;;;;;;5062554;28;20091;-74
2023/04/17 01:19:32;;;;;;;64.10;35.28;;;9.30;99.90;;;;;;5061205;28;20043;-75
2023/04/17 01:21:57;;;;;;;64.40;35.97;;;9.40;99.90;;;;;;5061185;28;20103;-77
2023/04/17 01:24:23;;;;;;;65.25;35.28;;;9.30;99.90;;;;;;5062512;28;20021;-74
2023/04/17 01:26:48;;;;;;;66.80;36.92;;;9.30;99.90;;;;;;5062492;28;20033;-75
2023/04/17 01:29:14;;;;;;;67.70;36.97;;;9.40;99.90;;;;;;5062586;28;20021;-75
2023/04/17 01:31:39;;;;;;;62.00;35.47;;;9.30;99.90;;;;;;5062629;28;20056;-75
2023/04/17 01:34:05;;;;;;;67.70;36.45;;;9.30;99.90;;;;;;5062180;28;20032;-76
2023/04/17 01:36:31;;;;;;;59.22;34.42;;;9.30;99.90;;;;;;5062400;28;20078;-74
2023/04/17 01:38:56;;;;;;;65.32;34.33;;;9.30;99.90;;;;;;5062310;28;20029;-76
2023/04/17 01:41:22;;;;;;;62.25;35.20;;;9.30;99.90;;;;;;5060742;28;20029;-76
2023/04/17 01:43:47;;;;;;;61.05;33.42;;;9.30;99.90;;;;;;5062228;28;20080;-74
2023/04/17 01:46:13;;;;;;;66.55;36.40;;;9.30;99.90;;;;;;5062009;28;20045;-77
2023/04/17 01:48:38;;;;;;;65.13;33.83;;;9.30;99.90;;;;;;5062048;28;20070;-74
2023/04/17 01:51:04;;;;;;;60.80;33.97;;;9.30;99.90;;;;;;5062336;28;20117;-74
2023/04/17 01:53:31;;;;;;;56.55;33.42;;;9.30;99.90;;;;;;5062056;28;20078;-75
2023/04/17 01:55:57;;;;;;;59.88;33.67;;;9.30;99.90;;;;;;5060372;28;20017;-76
2023/04/17 01:58:22;;;;;;;64.82;35.35;;;9.30;99.90;;;;;;5062000;28;20085;-74
2023/04/17 02:00:48;;;;;;;56.28;32.33;;;9.30;99.90;;;;;;5060636;28;20025;-76
2023/04/17 02:03:15;;;;;;;62.33;34.05;;;9.30;99.90;;;;;;5062080;28;20021;-75
2023/04/17 02:05:43;;;;;;;59.92;33.90;;;9.30;99.90;;;;;;5061978;28;20033;-77
2023/04/17 02:08:09;;;;;;;63.97;33.50;;;9.30;99.90;;;;;;5060752;28;20088;-74
2023/04/17 02:10:34;;;;;;;59.70;33.90;;;9.30;99.90;;;;;;5060633;28;20025;-73
2023/04/17 02:13:00;;;;;;;58.65;32.47;;;9.30;99.90;;;;;;5061874;28;20024;-77
2023/04/17 02:15:25;;;;;;;62.95;33.47;;;9.30;99.90;;;;;;5060530;28;20101;-76
2023/04/17 02:17:51;;;;;;;60.97;33.92;;;9.20;99.90;;;;;;5060715;28;20021;-76
2023/04/17 02:20:16;;;;;;;59.83;34.08;;;9.30;99.90;;;;;;5064579;28;20393;-75
2023/04/17 02:22:43;;;;;;;60.80;33.33;;;9.30;99.90;;;;;;5066195;28;20020;-76
2023/04/17 02:25:08;;;;;;;65.18;34.95;;;9.30;99.90;;;;;;5066065;28;20029;-78
2023/04/17 02:27:35;;;;;;;60.05;33.42;;;9.20;99.90;;;;;;5064646;28;20496;-76
2023/04/17 02:30:01;;;;;;;62.33;33.17;;;9.20;99.90;;;;;;5064410;28;20039;-78
2023/04/17 02:32:27;;;;;;;55.58;33.67;;;9.20;99.90;;;;;;5065692;28;20139;-76
2023/04/17 02:34:53;;;;;;;61.03;34.10;;;9.20;99.90;;;;;;5065509;28;20025;-74
2023/04/17 02:37:18;;;;;;;62.53;34.15;;;9.20;99.90;;;;;;5065112;28;20485;-77
2023/04/17 02:39:44;;;;;;;62.60;35.22;;;9.20;99.90;;;;;;5065608;28;20036;-75
2023/04/17 02:42:11;;;;;;;64.78;34.40;;;9.20;99.90;;;;;;5065705;28;20013;-75
2023/04/17 02:44:38;;;;;;;58.70;33.53;;;9.20;99.90;;;;;;5063704;28;20045;-75
2023/04/17 02:47:04;;;;;;;67.97;35.80;;;9.20;99.90;;;;;;5065366;28;20051;-73
2023/04/17 02:49:30;;;;;;;63.53;33.92;;;9.10;99.90;;;;;;5065371;28;20075;-74
2023/04/17 02:51:56;;;;;;;62.15;34.22;;;9.10;99.90;;;;;;5063985;28;20021;-75
2023/04/17 02:54:21;;;;;;;64.13;34.47;;;9.10;99.90;;;;;;5065137;28;20088;-77
2023/04/17 02:56:47;;;;;;;65.90;34.97;;;9.00;99.90;;;;;;5065281;28;20032;-74
2023/04/17 02:59:12;;;;;;;62.13;36.17;;;9.00;99.90;;;;;;5065328;28;20025;-73
2023/04/17 03:01:39;;;;;;;64.78;36.58;;;9.00;99.90;;;;;;5064995;28;20025;-76
2023/04/17 03:04:05;;;;;;;61.78;34.75;;;9.00;99.90;;;;;;5063652;28;20545;-74
2023/04/17 03:06:33;;;;;;;67.00;35.58;;;9.00;99.90;;;;;;5064255;28;20067;-74
2023/04/17 03:08:59;;;;;;;61.80;35.30;;;9.00;99.90;;;;;;5063506;28;20035;-73
2023/04/17 03:11:25;;;;;;;63.67;35.78;;;9.00;99.90;;;;;;5063650;28;20084;-74
2023/04/17 03:13:50;;;;;;;71.13;37.22;;;9.00;99.90;;;;;;5063496;28;20021;-75
2023/04/17 03:16:16;;;;;;;71.53;37.05;;;9.00;99.90;;;;;;5064923;28;20025;-75
2023/04/17 03:18:42;;;;;;;69.75;37.10;;;9.00;99.90;;;;;;5063496;28;20464;-74
2023/04/17 03:21:08;;;;;;;70.22;37.05;;;9.00;99.90;;;;;;5064907;28;20084;-77
2023/04/17 03:23:34;;;;;;;68.35;37.00;;;8.90;99.90;;;;;;5065090;28;20025;-74
2023/04/17 03:26:02;;;;;;;65.20;37.28;;;8.90;99.90;;;;;;5063352;28;20060;-73
2023/04/17 03:28:28;;;;;;;69.40;37.67;;;8.90;99.90;;;;;;5064372;28;20029;-73
2023/04/17 03:30:56;;;;;;;65.78;36.85;;;8.90;99.90;;;;;;5062453;28;20055;-75
2023/04/17 03:33:22;;;;;;;73.28;37.80;;;8.90;99.90;;;;;;5063141;28;20055;-75
2023/04/17 03:35:47;;;;;;;66.05;36.67;;;8.90;99.90;;;;;;5064478;28;20033;-75
2023/04/17 03:38:13;;;;;;;66.95;36.40;;;8.90;99.90;;;;;;5063292;28;20021;-78
2023/04/17 03:40:39;;;;;;;67.28;36.63;;;8.90;99.90;;;;;;5063147;28;20025;-73
2023/04/17 03:43:05;;;;;;;72.70;37.92;;;8.90;99.90;;;;;;5064430;28;20068;-75
2023/04/17 03:45:34;;;;;;;67.68;37.17;;;8.90;99.90;;;;;;5062641;28;20045;-73
2023/04/17 03:48:00;;;;;;;70.38;37.65;;;8.90;99.90;;;;;;5062899;28;20432;-74
2023/04/17 03:50:26;;;;;;;69.03;37.38;;;8.90;99.90;;;;;;5064137;28;20021;-74
2023/04/17 03:52:51;;;;;;;68.00;37.40;;;8.90;99.90;;;;;;5064273;28;20017;-74
2023/04/17 03:55:17;;;;;;;70.55;39.35;;;8.80;99.90;;;;;;5063593;28;20098;-74
2023/04/17 03:57:42;;;;;;;71.32;37.22;;;8.80;99.90;;;;;;5063962;28;20029;-75
2023/04/17 04:00:12;;;;;;;72.60;38.97;;;8.80;99.90;;;;;;5064378;28;20025;-74
2023/04/17 04:02:38;;;;;;;69.93;37.83;;;8.80;99.90;;;;;;5062752;28;20452;-74
2023/04/17 04:05:04;;;;;;;70.22;36.75;;;8.80;99.90;;;;;;5062876;28;20029;-77
2023/04/17 04:07:30;;;;;;;64.85;37.55;;;8.80;99.90;;;;;;5063931;28;20097;-74
2023/04/17 04:09:56;;;;;;;70.22;37.40;;;8.80;99.90;;;;;;5063721;28;20033;-75
2023/04/17 04:12:21;;;;;;;70.07;38.60;;;8.90;99.90;;;;;;5063673;28;20385;-74
2023/04/17 04:14:47;;;;;;;77.63;38.53;;;8.80;99.90;;;;;;5063745;28;20025;-74
2023/04/17 04:17:13;;;;;;;70.07;38.40;;;8.70;99.90;;;;;;5063686;28;20044;-74
2023/04/17 04:19:39;;;;;;;67.78;38.15;;;8.70;99.90;;;;;;5063762;28;20028;-76
2023/04/17 04:22:06;;;;;;;71.25;37.97;;;8.70;99.90;;;;;;5063283;28;20017;-75
2023/04/17 04:24:32;;;;;;;72.25;38.47;;;8.70;99.90;;;;;;5063346;28;20037;-74
2023/04/17 04:27:03;;;;;;;71.50;39.00;;;8.60;99.90;;;;;;5061080;28;20037;-75
2023/04/17 04:29:30;;;;;;;70.57;38.97;;;8.60;99.90;;;;;;5062966;28;20031;-74
2023/04/17 04:31:55;;;;;;;68.30;38.58;;;8.60;99.90;;;;;;5063001;28;20033;-76
2023/04/17 04:34:24;;;;;;;74.63;38.97;;;8.60;99.90;;;;;;5062207;28;20025;-75
2023/04/17 04:36:50;;;;;;;71.07;38.08;;;8.60;99.90;;;;;;5063023;28;20017;-75
2023/04/17 04:39:19;;;;;;;74.45;38.72;;;8.60;99.90;;;;;;5062478;28;20477;-73
2023/04/17 04:41:54;;;;;;;79.93;41.08;;;8.60;99.90;;;;;;5062287;28;20025;-74
2023/04/17 04:44:20;;;;;;;73.18;39.67;;;8.50;99.90;;;;;;5063061;28;20037;-74
2023/04/17 04:46:46;;;;;;;73.80;39.50;;;8.50;99.90;;;;;;5063842;28;20083;-74
2023/04/17 04:49:12;;;;;;;72.95;38.97;;;8.50;99.90;;;;;;5063611;28;20078;-74
2023/04/17 04:51:38;;;;;;;71.88;39.63;;;8.50;99.90;;;;;;5061557;28;20097;-75
2023/04/17 04:54:05;;;;;;;73.57;41.03;;;8.50;99.90;;;;;;5063652;28;20075;-76
2023/04/17 04:56:30;;;;;;;74.32;39.40;;;8.50;99.90;;;;;;5062556;28;20367;-75
2023/04/17 04:58:56;;;;;;;73.75;39.72;;;8.50;99.90;;;;;;5061438;28;20021;-77
2023/04/17 05:01:22;;;;;;;79.47;40.75;;;8.50;99.90;;;;;;5063142;28;20029;-74
2023/04/17 05:03:47;;;;;;;78.80;41.45;;;8.60;99.90;;;;;;5062534;28;20025;-74
2023/04/17 05:06:14;;;;;;;81.07;42.00;;;8.60;99.90;;;;;;5062292;28;20040;-75
2023/04/17 05:08:40;;;;;;;83.10;43.90;;;8.60;99.90;;;;;;5060940;28;20039;-72
2023/04/17 05:11:05;;;;;;;90.05;45.13;;;8.60;99.90;;;;;;5062723;28;20025;-72
2023/04/17 05:13:31;;;;;;;86.32;45.90;;;8.60;99.90;;;;;;5061420;28;20036;-72
2023/04/17 05:15:57;;;;;;;91.10;46.95;;;8.60;99.90;;;;;;5062500;28;20024;-72
2023/04/17 05:18:23;;;;;;;84.32;44.67;;;8.70;99.90;;;;;;5060893;28;20025;-72
2023/04/17 05:20:49;;;;;;;84.90;45.97;;;8.70;99.90;;;;;;5056104;28;20035;-72
2023/04/17 05:23:15;;;;;;;85.25;46.63;;;8.70;99.90;;;;;;5060777;28;20027;-73
2023/04/17 05:25:41;;;;;;;88.07;46.40;;;8.70;99.90;;;;;;5062286;28;20053;-72
2023/04/17 05:28:07;;;;;;;88.00;47.38;;;8.80;99.90;;;;;;5062666;28;20052;-72
2023/04/17 05:30:33;;;;;;;91.05;48.42;;;8.80;99.90;;;;;;5062187;28;20020;-74
2023/04/17 05:32:59;;;;;;;97.68;49.50;;;8.80;99.90;;;;;;5061609;28;20025;-71
2023/04/17 05:35:26;;;;;;;92.60;47.75;;;8.90;99.90;;;;;;5061207;28;20029;-72
2023/04/17 05:37:52;;;;;;;94.13;48.45;;;8.90;99.90;;;;;;5061020;28;20441;-72
2023/04/17 05:40:18;;;;;;;93.97;47.00;;;8.90;99.90;;;;;;5061105;28;20060;-71
2023/04/17 05:42:44;;;;;;;95.00;48.92;;;9.00;99.90;;;;;;5057435;28;20026;-73
2023/04/17 05:45:14;;;;;;;89.65;48.33;;;9.00;99.90;;;;;;5056567;28;20049;-71
2023/04/17 05:47:40;;;;;;;90.60;49.30;;;9.00;99.90;;;;;;5059187;28;20044;-72
2023/04/17 05:50:08;;;;;;;94.10;47.35;;;9.10;99.90;;;;;;5056527;28;20021;-73
2023/04/17 05:52:34;;;;;;;88.85;46.97;;;9.10;99.90;;;;;;5061908;28;21058;-71
2023/04/17 05:54:59;;;;;;;86.40;48.50;;;9.10;99.90;;;;;;5060398;28;20485;-70
2023/04/17 05:57:25;;;;;;;87.90;46.75;;;9.10;99.90;;;;;;5057824;28;20049;-70
2023/04/17 05:59:51;;;;;;;89.30;47.92;;;9.20;99.90;;;;;;5060207;28;20032;-72
2023/04/17 06:02:16;;;;;;;92.22;47.15;;;9.20;99.90;;;;;;5058133;28;20040;-71
2023/04/17 06:04:45;;;;;;;92.13;49.05;;;9.30;99.90;;;;;;5059901;28;20115;-74
2023/04/17 06:07:11;;;;;;;82.88;46.00;;;9.30;99.90;;;;;;5061686;28;20068;-73
2023/04/17 06:09:37;;;;;;;85.85;47.78;;;9.30;99.90;;;;;;5061536;28;20036;-72
2023/04/17 06:12:03;;;;;;;85.22;47.22;;;9.40;99.90;;;;;;5058577;28;20134;-72
2023/04/17 06:14:29;;;;;;;90.47;47.90;;;9.30;99.90;;;;;;5059138;28;20028;-72
2023/04/17 06:16:55;;;;;;;85.43;44.92;;;9.40;99.90;;;;;;5060038;28;20478;-72
2023/04/17 06:19:22;;;;;;;93.18;46.30;;;9.40;99.90;;;;;;5061334;28;20086;-70
2023/04/17 06:21:48;;;;;;;88.93;47.03;;;9.50;99.90;;;;;;5061271;28;20079;-71
2023/04/17 06:24:14;;;;;;;83.38;45.65;;;9.50;99.90;;;;;;5060844;28;20466;-71
2023/04/17 06:26:39;;;;;;;88.03;45.28;;;9.60;99.90;;;;;;5058671;28;20093;-73
2023/04/17 06:29:05;;;;;;;81.28;44.95;;;9.70;99.90;;;;;;5060778;28;20055;-72
2023/04/17 06:31:31;;;;;;;80.00;44.92;;;9.70;99.90;;;;;;5061720;28;20024;-71
2023/04/17 06:33:56;;;;;;;76.35;44.67;;;9.80;99.90;;;;;;5060425;28;20017;-71
2023/04/17 06:36:22;;;;;;;81.35;43.38;;;9.80;99.90;;;;;;5061670;28;20029;-71
2023/04/17 06:38:48;;;;;;;85.75;44.75;;;9.80;99.90;;;;;;5059789;28;20021;-74
2023/04/17 06:41:13;;;;;;;78.07;44.85;;;10.00;99.90;;;;;;5061857;28;20025;-71
2023/04/17 06:43:39;;;;;;;74.53;42.58;;;10.00;99.90;;;;;;5060818;28;20493;-73
2023/04/17 06:46:05;;;;;;;78.32;45.00;;;10.10;99.90;;;;;;5060546;28;20533;-72
2023/04/17 06:48:30;;;;;;;75.82;42.55;;;10.10;99.90;;;;;;5061380;28;20029;-72
2023/04/17 06:50:56;;;;;;;73.70;42.35;;;10.20;99.90;;;;;;5061516;28;20466;-72
2023/04/17 06:53:21;;;;;;;73.60;42.97;;;10.10;99.90;;;;;;5060955;28;20028;-72
2023/04/17 06:55:47;;;;;;;75.75;41.67;;;10.20;99.90;;;;;;5061552;28;20017;-72
2023/04/17 06:58:13;;;;;;;73.47;40.85;;;10.30;99.90;;;;;;5061557;28;20017;-71
2023/04/17 07:00:39;;;;;;;70.88;41.40;;;10.40;99.90;;;;;;5061185;28;20036;-71
2023/04/17 07:03:05;;;;;;;71.18;41.45;;;10.40;99.90;;;;;;5060140;28;20029;-71
2023/04/17 07:05:31;;;;;;;73.50;42.33;;;10.50;99.90;;;;;;5062615;28;20032;-72
2023/04/17 07:07:56;;;;;;;77.97;42.00;;;10.60;99.90;;;;;;5064884;28;20070;-71
2023/04/17 07:10:22;;;;;;;73.65;40.00;;;10.70;99.90;;;;;;5064948;28;20025;-71
2023/04/17 07:12:47;;;;;;;73.60;41.05;;;10.80;99.90;;;;;;5063525;28;20052;-71
2023/04/17 07:15:13;;;;;;;68.72;39.97;;;10.80;99.90;;;;;;5064885;28;20036;-72
2023/04/17 07:17:39;;;;;;;71.35;40.67;;;10.90;99.90;;;;;;5064479;28;20081;-71
2023/04/17 07:20:06;;;;;;;69.25;40.65;;;10.90;99.90;;;;;;5064991;28;20470;-72
2023/04/17 07:22:33;;;;;;;68.53;38.55;;;11.00;99.90;;;;;;5064650;28;20028;-72
2023/04/17 07:24:59;;;;;;;76.70;40.13;;;11.10;99.90;;;;;;5064628;28;20036;-70
2023/04/17 07:27:25;;;;;;;64.78;39.33;;;11.20;99.90;;;;;;5063278;28;20041;-72
2023/04/17 07:29:54;;;;;;;65.88;37.95;;;11.30;99.90;;;;;;5063328;28;20020;-71
2023/04/17 07:32:23;;;;;;;69.47;38.00;;;11.40;99.90;;;;;;5062666;28;20017;-71
2023/04/17 07:34:48;;;;;;;66.63;39.83;;;11.40;99.90;;;;;;5064336;28;20084;-72
2023/04/17 07:37:14;;;;;;;62.58;36.55;;;11.50;99.90;;;;;;5063254;28;20017;-71
2023/04/17 07:39:40;;;;;;;56.55;35.30;;;11.60;99.90;;;;;;5062373;28;20124;-73
2023/04/17 07:42:07;;;;;;;53.47;32.58;;;11.70;99.90;;;;;;5063522;28;20033;-72
2023/04/17 07:44:33;;;;;;;52.17;32.60;;;12.00;99.90;;;;;;5063655;28;20041;-72
2023/04/17 07:46:59;;;;;;;55.60;32.10;;;12.30;99.90;;;;;;5064327;28;20127;-71
2023/04/17 07:49:25;;;;;;;47.28;26.52;;;12.60;99.90;;;;;;5062654;28;20033;-71
2023/04/17 07:51:51;;;;;;;46.25;26.80;;;12.80;99.90;;;;;;5063770;28;20021;-73
2023/04/17 07:54:17;;;;;;;52.92;29.05;;;13.10;99.90;;;;;;5063107;28;20493;-72
2023/04/17 07:56:45;;;;;;;45.72;27.10;;;13.30;99.90;;;;;;5063443;28;20539;-72
2023/04/17 07:59:11;;;;;;;42.97;26.98;;;13.50;99.90;;;;;;5062455;28;20182;-71
2023/04/17 08:01:37;;;;;;;41.55;26.75;;;13.60;99.90;;;;;;5060281;28;20093;-72
2023/04/17 08:04:03;;;;;;;46.42;27.52;;;13.50;99.90;;;;;;5060725;28;20029;-71
2023/04/17 08:06:29;;;;;;;40.75;26.02;;;13.40;99.90;;;;;;5059870;28;20045;-72
2023/04/17 08:08:54;;;;;;;40.15;26.65;;;13.30;99.90;;;;;;5063984;28;20028;-72
2023/04/17 08:11:21;;;;;;;43.75;26.10;;;13.20;99.90;;;;;;5063790;28;20025;-72
2023/04/17 08:13:46;;;;;;;45.47;27.80;;;13.30;99.90;;;;;;5061749;28;20473;-72
2023/04/17 08:16:12;;;;;;;45.50;26.10;;;13.40;99.90;;;;;;5063466;28;20055;-71
2023/04/17 08:18:40;;;;;;;41.28;25.35;;;13.60;99.90;;;;;;5060743;28;20021;-72
2023/04/17 08:21:07;;;;;;;43.58;26.15;;;13.70;99.90;;;;;;5062815;28;20084;-73
2023/04/17 08:23:33;;;;;;;36.03;23.27;;;13.90;99.90;;;;;;5059521;28;20032;-71
2023/04/17 08:25:59;;;;;;;34.78;23.23;;;14.10;99.90;;;;;;5059973;28;20041;-70
2023/04/17 08:28:25;;;;;;;39.03;22.40;;;14.40;99.90;;;;;;5062402;28;20077;-72
2023/04/17 08:30:50;;;;;;;30.55;20.67;;;14.40;99.90;;;;;;5059203;28;20028;-71
2023/04/17 08:33:17;;;;;;;28.95;19.17;;;14.60;99.90;;;;;;5060928;28;20025;-71
2023/04/17 08:35:43;;;;;;;32.22;19.17;;;14.60;99.90;;;;;;5062227;28;20033;-72
2023/04/17 08:38:12;;;;;;;29.52;19.65;;;14.80;99.90;;;;;;5061346;28;20029;-70
2023/04/17 08:40:41;;;;;;;31.25;18.83;;;14.90;99.90;;;;;;5061470;28;20026;-71
2023/04/17 08:43:19;;;;;;;27.70;17.80;;;15.00;99.90;;;;;;5062452;28;20471;-71
2023/04/17 08:45:52;;;;;;;21.58;15.60;;;15.10;99.90;;;;;;5057930;28;20187;-71
2023/04/17 08:48:19;;;;;;;28.83;16.17;;;15.20;99.90;;;;;;5061676;28;20028;-72
2023/04/17 08:50:49;;;;;;;28.00;17.25;;;15.40;99.90;;;;;;5057336;28;20489;-72
2023/04/17 08:53:19;;;;;;;25.10;16.27;;;15.60;99.90;;;;;;5061670;28;20468;-71
2023/04/17 08:55:46;;;;;;;24.13;16.10;;;15.90;99.90;;;;;;5061811;28;20059;-72
2023/04/17 08:58:13;;;;;;;25.77;15.88;;;16.00;99.90;;;;;;5062610;28;20036;-72
2023/04/17 09:00:41;;;;;;;26.80;16.60;;;16.20;99.90;;;;;;5061608;28;20041;-73
2023/04/17 09:03:09;;;;;;;27.13;17.75;;;16.40;99.90;;;;;;5061778;28;20053;-72
2023/04/17 09:05:36;;;;;;;26.77;16.98;;;16.30;99.90;;;;;;5061329;28;20047;-71
2023/04/17 09:08:22;;;;;;;29.63;17.17;;;16.40;99.90;;;;;;5060495;28;20021;-71
2023/04/17 09:10:49;;;;;;;26.05;16.90;;;16.30;99.90;;;;;;5059332;28;20044;-70
2023/04/17 09:13:17;;;;;;;30.35;17.90;;;16.50;99.90;;;;;;5059724;28;20021;-72
2023/04/17 09:15:45;;;;;;;25.35;16.95;;;16.60;99.90;;;;;;5059096;28;20037;-71
2023/04/17 09:18:26;;;;;;;25.30;16.63;;;16.40;99.90;;;;;;5059853;28;20017;-71
2023/04/17 09:20:53;;;;;;;28.00;16.10;;;16.40;99.90;;;;;;5062469;28;20028;-71
2023/04/17 09:23:19;;;;;;;24.38;14.93;;;16.50;99.90;;;;;;5062314;28;20108;-71
2023/04/17 09:25:45;;;;;;;20.20;13.40;;;16.40;99.90;;;;;;5061783;28;20029;-73
2023/04/17 09:28:13;;;;;;;23.08;13.82;;;16.50;99.90;;;;;;5058848;28;20035;-72
2023/04/17 09:30:40;;;;;;;22.33;14.23;;;16.50;99.90;;;;;;5060048;28;20025;-71
2023/04/17 09:33:07;;;;;;;23.02;13.73;;;16.50;99.90;;;;;;5056550;28;20040;-71
2023/04/17 09:35:33;;;;;;;19.73;13.90;;;16.40;99.90;;;;;;5060635;28;20455;-71
2023/04/17 09:37:59;;;;;;;21.52;13.55;;;16.60;99.90;;;;;;5056074;28;20041;-71
2023/04/17 09:40:34;;;;;;;23.92;13.10;;;16.70;99.90;;;;;;5060597;28;20025;-72
2023/04/17 09:43:05;;;;;;;21.88;14.23;;;16.90;99.90;;;;;;5058452;28;20025;-72
2023/04/17 09:45:34;;;;;;;24.08;14.30;;;17.10;99.90;;;;;;5053710;28;20095;-72
2023/04/17 09:48:03;;;;;;;21.88;13.68;;;17.20;99.90;;;;;;5060758;28;20032;-72
2023/04/17 09:50:31;;;;;;;21.65;13.60;;;17.40;99.90;;;;;;5061394;28;20053;-71
2023/04/17 09:52:57;;;;;;;23.17;14.27;;;17.50;99.90;;;;;;5058426;28;20029;-71
2023/04/17 09:55:25;;;;;;;18.50;13.80;;;17.70;99.90;;;;;;5060293;28;20024;-71
2023/04/17 09:57:53;;;;;;;21.73;14.55;;;17.90;99.90;;;;;;5059730;28;20036;-70
2023/04/17 10:00:20;;;;;;;23.10;15.00;;;17.90;99.90;;;;;;5059616;28;20067;-71
2023/04/17 10:02:48;;;;;;;21.17;14.80;;;18.00;99.90;;;;;;5059591;28;20394;-71
2023/04/17 10:05:15;;;;;;;27.13;16.27;;;18.20;99.90;;;;;;5060744;28;20055;-70
2023/04/17 10:07:44;;;;;;;21.00;16.20;;;18.30;99.90;;;;;;5059686;28;20037;-72
2023/04/17 10:10:12;;;;;;;23.30;16.40;;;18.40;99.90;;;;;;5059988;28;20048;-71
2023/04/17 10:12:40;;;;;;;25.40;16.67;;;18.20;99.90;;;;;;5060257;28;20024;-72
2023/04/17 10:15:07;;;;;;;23.27;16.10;;;18.20;99.90;;;;;;5058772;28;20098;-71
2023/04/17 10:17:52;;;;;;;22.15;17.42;;;18.20;99.90;;;;;;5060897;28;20017;-70
2023/04/17 10:20:18;;;;;;;28.10;16.98;;;18.10;99.90;;;;;;5056083;28;20052;-71
2023/04/17 10:22:54;;;;;;;23.52;16.02;;;18.00;99.90;;;;;;5060667;28;20056;-72
2023/04/17 10:25:27;;;;;;;32.40;16.58;;;18.10;99.90;;;;;;5059870;28;20025;-72
2023/04/17 10:27:57;;;;;;;20.48;15.75;;;18.30;99.90;;;;;;5059387;28;20037;-71
2023/04/17 10:30:23;;;;;;;23.02;16.70;;;18.50;99.90;;;;;;5059566;28;20030;-73
2023/04/17 10:33:10;;;;;;;25.70;16.80;;;18.60;99.90;;;;;;5057651;28;20036;-72
2023/04/17 10:35:36;;;;;;;20.80;16.55;;;18.70;99.90;;;;;;5061163;28;20025;-71
2023/04/17 10:38:06;;;;;;;21.63;16.00;;;18.80;99.90;;;;;;5060982;28;20077;-72
2023/04/17 10:40:36;;;;;;;20.00;15.95;;;19.00;99.90;;;;;;5060935;28;20032;-71
2023/04/17 10:43:18;;;;;;;22.58;16.20;;;19.00;99.90;;;;;;5058910;28;20025;-71
2023/04/17 10:45:55;;;;;;;20.95;15.88;;;19.30;99.90;;;;;;5060077;28;20501;-72
2023/04/17 10:48:21;;;;;;;25.70;17.88;;;19.30;99.90;;;;;;5059121;28;20032;-71
2023/04/17 10:50:47;;;;;;;26.65;17.52;;;19.30;99.90;;;;;;5058994;28;20017;-71
2023/04/17 10:53:35;;;;;;;22.45;16.52;;;19.20;99.90;;;;;;5061331;28;20021;-72
2023/04/17 10:56:02;;;;;;;20.38;15.02;;;19.20;99.90;;;;;;5063664;28;20094;-71
2023/04/17 10:58:28;;;;;;;19.45;13.95;;;19.20;99.90;;;;;;5065037;28;20025;-71
2023/04/17 11:00:54;;;;;;;19.48;12.35;;;19.30;99.90;;;;;;5065073;28;20051;-72
2023/04/17 11:03:21;;;;;;;17.02;11.98;;;19.40;99.90;;;;;;5063683;28;20017;-72
2023/04/17 11:05:48;;;;;;;18.30;12.30;;;19.40;99.90;;;;;;5064235;28;20027;-71
2023/04/17 11:08:14;;;;;;;18.20;11.77;;;19.40;99.90;;;;;;5060788;28;20043;-74
2023/04/17 11:10:43;;;;;;;18.58;12.07;;;19.40;99.90;;;;;;5063815;28;20021;-72
2023/04/17 11:13:09;;;;;;;18.20;12.95;;;19.60;99.90;;;;;;5063959;28;20028;-72
2023/04/17 11:15:35;;;;;;;18.92;12.63;;;20.00;99.90;;;;;;5062711;28;20056;-71
2023/04/17 11:18:02;;;;;;;21.50;12.88;;;20.30;99.90;;;;;;5065057;28;20025;-70
2023/04/17 11:20:30;;;;;;;26.55;14.68;;;20.60;99.90;;;;;;5064537;28;20017;-72
2023/04/17 11:23:03;;;;;;;20.90;12.68;;;20.90;99.90;;;;;;5064524;28;20020;-72
2023/04/17 11:25:30;;;;;;;20.17;13.02;;;21.10;99.90;;;;;;5064919;28;20033;-71
2023/04/17 11:27:57;;;;;;;23.95;15.07;;;21.40;99.90;;;;;;5063093;28;20033;-71
2023/04/17 11:30:40;;;;;;;14.93;11.00;;;21.60;99.90;;;;;;5062097;28;20025;-71
2023/04/17 11:33:07;;;;;;;18.80;12.43;;;21.40;99.90;;;;;;5064654;28;20052;-71
2023/04/17 11:35:38;;;;;;;16.45;11.82;;;21.20;99.90;;;;;;5062048;28;20025;-71
2023/04/17 11:38:16;;;;;;;18.10;12.27;;;21.00;99.90;;;;;;5064028;28;20037;-72
2023/04/17 11:40:59;;;;;;;16.50;12.20;;;20.70;99.90;;;;;;5063290;28;20685;-71
2023/04/17 11:43:26;;;;;;;19.02;12.30;;;20.20;99.90;;;;;;5064061;28;20021;-74
2023/04/17 11:45:57;;;;;;;17.05;12.32;;;20.10;99.90;;;;;;5062904;28;20055;-72
2023/04/17 11:48:27;;;;;;;17.33;12.95;;;20.30;99.90;;;;;;5063956;28;20076;-72
2023/04/17 11:50:58;;;;;;;15.75;10.98;;;20.80;99.90;;;;;;5063330;28;20028;-72
2023/04/17 11:53:24;;;;;;;17.33;11.60;;;21.10;99.90;;;;;;5062541;28;20397;-72
2023/04/17 11:56:13;;;;;;;16.55;11.63;;;21.30;99.90;;;;;;5063950;28;20054;-71
2023/04/17 11:58:48;;;;;;;15.00;10.68;;;21.60;99.90;;;;;;5064181;28;20108;-73
2023/04/17 12:01:15;;;;;;;15.93;11.15;;;21.90;99.90;;;;;;5063085;28;20480;-73
2023/04/17 12:03:41;;;;;;;14.18;10.77;;;22.20;99.90;;;;;;5062077;28;20028;-72
2023/04/17 12:06:07;;;;;;;13.32;11.38;;;22.50;99.90;;;;;;5063940;28;20037;-73
2023/04/17 12:08:49;;;;;;;17.95;11.25;;;22.70;99.90;;;;;;5062286;28;20021;-72
2023/04/17 12:11:23;;;;;;;15.18;9.90;;;22.70;99.90;;;;;;5062377;28;20021;-73
2023/04/17 12:13:50;;;;;;;15.50;9.95;;;22.90;99.90;;;;;;5062849;28;20021;-73
2023/04/17 12:16:16;;;;;;;19.70;11.30;;;23.10;99.90;;;;;;5061949;28;20452;-74
2023/04/17 12:18:41;;;;;;;12.15;10.55;;;22.90;99.90;;;;;;5062889;28;20025;-72
2023/04/17 12:21:07;;;;;;;16.38;10.32;;;22.60;99.90;;;;;;5062252;28;20017;-71
2023/04/17 12:23:32;;;;;;;17.52;10.38;;;22.10;99.90;;;;;;5063731;28;20037;-71
2023/04/17 12:25:58;;;;;;;17.77;10.13;;;21.70;99.90;;;;;;5063500;28;20048;-71
2023/04/17 12:28:24;;;;;;;13.00;8.63;;;21.10;99.90;;;;;;5063599;28;20025;-72
2023/04/17 12:30:50;;;;;;;12.95;9.57;;;21.00;99.90;;;;;;5058923;28;20029;-73
2023/04/17 12:33:15;;;;;;;15.95;7.18;;;21.00;99.90;;;;;;5061563;28;20021;-73